createdAt,value
2024-01-11T00:00:26.632Z,81
2024-01-11T00:00:54.689Z,79
2024-01-11T00:01:25.865Z,79
2024-01-11T00:01:58.499Z,79
2024-01-11T00:02:29.770Z,78
2024-01-11T00:03:02.836Z,80
2024-01-11T00:03:33.503Z,80
2024-01-11T00:04:06.454Z,80
2024-01-11T00:04:37.760Z,80
2024-01-11T00:05:11.028Z,80
2024-01-11T00:05:41.709Z,80
2024-01-11T00:05:58.321Z,80
2024-01-11T00:06:29.666Z,80
2024-01-11T00:07:01.847Z,81
2024-01-11T00:07:33.668Z,81
2024-01-11T00:08:05.584Z,81
2024-01-11T00:08:38.605Z,81
2024-01-11T00:09:09.595Z,81
2024-01-11T00:09:42.969Z,77
2024-01-11T00:10:13.953Z,68
2024-01-11T00:10:46.329Z,68
2024-01-11T00:11:18.788Z,68
2024-01-11T00:11:50.593Z,68
2024-01-11T00:12:21.616Z,68
2024-01-11T00:12:54.600Z,68
2024-01-11T00:13:25.943Z,68
2024-01-11T00:13:58.675Z,67
2024-01-11T00:14:29.787Z,62
2024-01-11T00:15:04.558Z,68
2024-01-11T00:15:33.759Z,68
2024-01-11T00:16:06.578Z,68
2024-01-11T00:16:37.713Z,68
2024-01-11T00:17:10.737Z,69
2024-01-11T00:17:41.793Z,69
2024-01-11T00:17:57.970Z,69
2024-01-11T00:18:29.735Z,69
2024-01-11T00:19:01.934Z,70
2024-01-11T00:19:33.669Z,68
2024-01-11T00:20:05.836Z,68
2024-01-11T00:20:38.878Z,69
2024-01-11T00:21:09.711Z,69
2024-01-11T00:21:42.677Z,69
2024-01-11T00:22:13.638Z,70
2024-01-11T00:22:46.594Z,70
2024-01-11T00:23:17.875Z,78
2024-01-11T00:23:50.386Z,84
2024-01-11T00:24:21.659Z,75
2024-01-11T00:24:54.628Z,78
2024-01-11T00:25:26.002Z,78
2024-01-11T00:25:58.457Z,78
2024-01-11T00:26:29.705Z,76
2024-01-11T00:27:02.531Z,76
2024-01-11T00:27:33.569Z,76
2024-01-11T00:28:06.673Z,76
2024-01-11T00:28:37.755Z,76
2024-01-11T00:29:10.312Z,87
2024-01-11T00:29:41.801Z,82
2024-01-11T00:30:16.078Z,84
2024-01-11T00:30:45.897Z,84
2024-01-11T00:31:18.373Z,83
2024-01-11T00:31:49.669Z,82
2024-01-11T00:32:22.781Z,82
2024-01-11T00:32:53.770Z,82
2024-01-11T00:33:29.253Z,82
2024-01-11T00:33:57.867Z,82
2024-01-11T00:34:30.623Z,96
2024-01-11T00:35:02.321Z,96
2024-01-11T00:35:34.543Z,94
2024-01-11T00:36:05.745Z,94
2024-01-11T00:36:38.634Z,94
2024-01-11T00:37:09.673Z,94
2024-01-11T00:37:42.537Z,94
2024-01-11T00:38:13.799Z,94
2024-01-11T00:38:46.360Z,94
2024-01-11T00:39:17.725Z,94
2024-01-11T00:39:50.643Z,94
2024-01-11T00:40:21.964Z,94
2024-01-11T00:40:54.442Z,94
2024-01-11T00:41:25.766Z,94
2024-01-11T00:41:58.611Z,94
2024-01-11T00:42:29.604Z,94
2024-01-11T00:43:04.360Z,94
2024-01-11T00:43:33.708Z,94
2024-01-11T00:44:06.383Z,94
2024-01-11T00:44:37.689Z,94
2024-01-11T00:45:11.997Z,94
2024-01-11T00:45:41.642Z,94
2024-01-11T00:46:19.088Z,94
2024-01-11T00:46:45.653Z,94
2024-01-11T00:47:17.816Z,94
2024-01-11T00:47:49.702Z,94
2024-01-11T00:48:21.744Z,94
2024-01-11T00:48:56.756Z,94
2024-01-11T00:49:25.935Z,94
2024-01-11T00:49:58.536Z,94
2024-01-11T00:50:30.065Z,94
2024-01-11T00:51:02.469Z,94
2024-01-11T00:51:33.614Z,96
2024-01-11T00:52:07.311Z,97
2024-01-11T00:52:37.715Z,88
2024-01-11T00:53:10.312Z,88
2024-01-11T00:53:41.662Z,89
2024-01-11T00:54:14.461Z,89
2024-01-11T00:54:45.738Z,89
2024-01-11T00:55:18.924Z,89
2024-01-11T00:55:49.644Z,89
2024-01-11T00:56:22.552Z,89
2024-01-11T00:56:53.705Z,89
2024-01-11T00:57:26.809Z,89
2024-01-11T00:57:57.673Z,89
2024-01-11T00:58:30.440Z,89
2024-01-11T00:59:01.920Z,89
2024-01-11T00:59:34.665Z,89
2024-01-11T01:00:07.556Z,89
2024-01-11T01:00:38.438Z,89
2024-01-11T01:01:09.611Z,89
2024-01-11T01:01:42.487Z,89
2024-01-11T01:02:13.614Z,89
2024-01-11T01:02:29.797Z,89
2024-01-11T01:03:01.742Z,89
2024-01-11T01:03:33.629Z,88
2024-01-11T01:04:06.359Z,88
2024-01-11T01:04:37.735Z,84
2024-01-11T01:05:10.754Z,84
2024-01-11T01:05:41.722Z,84
2024-01-11T01:06:14.607Z,84
2024-01-11T01:06:45.746Z,84
2024-01-11T01:07:18.392Z,84
2024-01-11T01:07:49.699Z,84
2024-01-11T01:08:22.708Z,84
2024-01-11T01:08:53.550Z,84
2024-01-11T01:09:26.616Z,84
2024-01-11T01:09:57.663Z,84
2024-01-11T01:10:30.898Z,45
2024-01-11T01:11:01.749Z,45
2024-01-11T01:11:34.583Z,45
2024-01-11T01:12:05.757Z,45
2024-01-11T01:12:38.785Z,45
2024-01-11T01:13:09.610Z,45
2024-01-11T01:13:42.626Z,45
2024-01-11T01:14:13.827Z,45
2024-01-11T01:14:46.226Z,45
2024-01-11T01:15:19.073Z,45
2024-01-11T01:15:50.729Z,45
2024-01-11T01:16:21.596Z,45
2024-01-11T01:16:57.330Z,38
2024-01-11T01:17:25.840Z,38
2024-01-11T01:17:59.137Z,38
2024-01-11T01:18:29.680Z,38
2024-01-11T01:19:02.825Z,38
2024-01-11T01:19:33.797Z,38
2024-01-11T01:20:06.850Z,38
2024-01-11T01:20:37.841Z,69
2024-01-11T01:21:10.632Z,74
2024-01-11T01:21:41.509Z,74
2024-01-11T01:22:14.578Z,86
2024-01-11T01:22:45.640Z,77
2024-01-11T01:23:18.789Z,77
2024-01-11T01:23:49.640Z,76
2024-01-11T01:24:22.458Z,77
2024-01-11T01:24:53.746Z,77
2024-01-11T01:25:27.629Z,76
2024-01-11T01:25:57.709Z,77
2024-01-11T01:26:30.490Z,77
2024-01-11T01:27:01.617Z,76
2024-01-11T01:27:34.685Z,77
2024-01-11T01:28:05.661Z,77
2024-01-11T01:28:41.512Z,77
2024-01-11T01:29:09.627Z,77
2024-01-11T01:29:42.581Z,77
2024-01-11T01:30:14.999Z,77
2024-01-11T01:30:50.792Z,76
2024-01-11T01:31:17.636Z,77
2024-01-11T01:31:49.671Z,77
2024-01-11T01:32:21.811Z,77
2024-01-11T01:32:53.747Z,77
2024-01-11T01:33:26.591Z,81
2024-01-11T01:33:57.914Z,81
2024-01-11T01:34:30.752Z,81
2024-01-11T01:35:02.413Z,81
2024-01-11T01:35:34.826Z,81
2024-01-11T01:36:05.795Z,80
2024-01-11T01:36:38.572Z,80
2024-01-11T01:37:09.631Z,80
2024-01-11T01:37:44.604Z,80
2024-01-11T01:38:13.616Z,80
2024-01-11T01:38:46.322Z,80
2024-01-11T01:39:17.712Z,80
2024-01-11T01:39:50.595Z,80
2024-01-11T01:40:22.028Z,80
2024-01-11T01:40:54.633Z,80
2024-01-11T01:41:25.729Z,80
2024-01-11T01:41:58.339Z,80
2024-01-11T01:42:29.666Z,54
2024-01-11T01:43:02.836Z,53
2024-01-11T01:43:33.804Z,54
2024-01-11T01:44:09.406Z,54
2024-01-11T01:44:37.861Z,54
2024-01-11T01:45:11.936Z,54
2024-01-11T01:45:41.777Z,54
2024-01-11T01:46:14.411Z,52
2024-01-11T01:46:45.710Z,52
2024-01-11T01:47:18.936Z,52
2024-01-11T01:47:49.743Z,57
2024-01-11T01:48:38.016Z,57
2024-01-11T01:49:09.741Z,57
2024-01-11T01:49:41.780Z,61
2024-01-11T01:50:14.142Z,61
2024-01-11T01:50:45.789Z,61
2024-01-11T01:51:17.766Z,61
2024-01-11T01:51:49.645Z,61
2024-01-11T01:52:22.671Z,61
2024-01-11T01:52:53.799Z,69
2024-01-11T01:53:26.601Z,69
2024-01-11T01:53:57.671Z,69
2024-01-11T01:54:30.444Z,69
2024-01-11T01:55:02.385Z,69
2024-01-11T01:55:35.583Z,69
2024-01-11T01:56:05.762Z,69
2024-01-11T01:56:38.950Z,69
2024-01-11T01:57:09.765Z,69
2024-01-11T01:57:42.750Z,69
2024-01-11T01:58:13.618Z,78
2024-01-11T01:58:46.391Z,78
2024-01-11T01:59:17.671Z,77
2024-01-11T01:59:50.511Z,77
2024-01-11T02:00:23.808Z,77
2024-01-11T02:00:55.043Z,77
2024-01-11T02:01:25.824Z,77
2024-01-11T02:01:58.510Z,80
2024-01-11T02:02:29.789Z,80
2024-01-11T02:03:02.920Z,80
2024-01-11T02:03:33.736Z,80
2024-01-11T02:04:06.432Z,80
2024-01-11T02:04:37.787Z,80
2024-01-11T02:05:10.924Z,80
2024-01-11T02:05:41.790Z,80
2024-01-11T02:06:14.584Z,80
2024-01-11T02:06:45.639Z,80
2024-01-11T02:07:18.373Z,80
2024-01-11T02:07:49.636Z,80
2024-01-11T02:08:22.597Z,80
2024-01-11T02:08:53.599Z,80
2024-01-11T02:09:26.590Z,88
2024-01-11T02:09:57.777Z,88
2024-01-11T02:10:30.757Z,90
2024-01-11T02:11:01.736Z,96
2024-01-11T02:11:34.592Z,97
2024-01-11T02:12:05.806Z,97
2024-01-11T02:12:38.510Z,97
2024-01-11T02:13:10.930Z,97
2024-01-11T02:13:42.700Z,97
2024-01-11T02:14:13.629Z,97
2024-01-11T02:14:46.469Z,97
2024-01-11T02:15:18.971Z,97
2024-01-11T02:15:50.670Z,106
2024-01-11T02:16:21.616Z,106
2024-01-11T02:16:54.688Z,106
2024-01-11T02:17:25.810Z,106
2024-01-11T02:17:58.531Z,106
2024-01-11T02:18:29.792Z,106
2024-01-11T02:19:02.618Z,106
2024-01-11T02:19:33.618Z,106
2024-01-11T02:20:06.934Z,109
2024-01-11T02:20:37.803Z,109
2024-01-11T02:21:10.726Z,109
2024-01-11T02:21:41.706Z,109
2024-01-11T02:21:57.885Z,109
2024-01-11T02:22:29.739Z,109
2024-01-11T02:23:01.748Z,109
2024-01-11T02:23:33.921Z,109
2024-01-11T02:24:05.901Z,109
2024-01-11T02:24:37.679Z,210
2024-01-11T02:25:10.048Z,210
2024-01-11T02:25:41.819Z,210
2024-01-11T02:26:13.678Z,213
2024-01-11T02:26:46.486Z,210
2024-01-11T02:27:17.744Z,210
2024-01-11T02:27:50.716Z,208
2024-01-11T02:28:21.661Z,208
2024-01-11T02:28:54.731Z,208
2024-01-11T02:29:25.885Z,208
2024-01-11T02:29:58.511Z,208
2024-01-11T02:30:30.965Z,208
2024-01-11T02:31:02.654Z,213
2024-01-11T02:31:33.589Z,213
2024-01-11T02:32:06.874Z,213
2024-01-11T02:32:37.869Z,213
2024-01-11T02:33:10.903Z,213
2024-01-11T02:33:41.794Z,213
2024-01-11T02:33:57.999Z,201
2024-01-11T02:34:29.765Z,202
2024-01-11T02:35:02.244Z,201
2024-01-11T02:35:33.785Z,201
2024-01-11T02:36:05.829Z,201
2024-01-11T02:36:37.650Z,201
2024-01-11T02:37:09.758Z,201
2024-01-11T02:37:41.741Z,194
2024-01-11T02:38:13.629Z,194
2024-01-11T02:38:30.836Z,191
2024-01-11T02:39:01.834Z,197
2024-01-11T02:39:35.402Z,197
2024-01-11T02:40:05.998Z,197
2024-01-11T02:40:38.618Z,198
2024-01-11T02:41:09.737Z,198
2024-01-11T02:41:42.481Z,198
2024-01-11T02:42:13.722Z,198
2024-01-11T02:42:46.839Z,198
2024-01-11T02:43:17.635Z,198
2024-01-11T02:43:50.858Z,198
2024-01-11T02:44:21.847Z,198
2024-01-11T02:44:54.440Z,198
2024-01-11T02:45:26.977Z,198
2024-01-11T02:45:58.770Z,198
2024-01-11T02:46:29.621Z,198
2024-01-11T02:47:02.636Z,198
2024-01-11T02:47:34.066Z,198
2024-01-11T02:48:06.862Z,198
2024-01-11T02:48:37.839Z,198
2024-01-11T02:49:10.645Z,195
2024-01-11T02:49:41.755Z,195
2024-01-11T02:50:14.776Z,195
2024-01-11T02:50:45.714Z,195
2024-01-11T02:51:18.897Z,190
2024-01-11T02:51:49.803Z,187
2024-01-11T02:52:22.599Z,185
2024-01-11T02:52:53.735Z,185
2024-01-11T02:53:26.842Z,185
2024-01-11T02:53:57.781Z,185
2024-01-11T02:54:30.568Z,185
2024-01-11T02:55:02.285Z,184
2024-01-11T02:55:35.467Z,185
2024-01-11T02:56:05.738Z,185
2024-01-11T02:56:38.560Z,185
2024-01-11T02:57:09.776Z,187
2024-01-11T02:57:42.671Z,187
2024-01-11T02:58:13.728Z,187
2024-01-11T02:58:46.476Z,187
2024-01-11T02:59:17.588Z,187
2024-01-11T02:59:50.498Z,187
2024-01-11T03:00:23.108Z,187
2024-01-11T03:00:54.774Z,187
2024-01-11T03:01:25.646Z,185
2024-01-11T03:01:58.550Z,185
2024-01-11T03:02:29.860Z,185
2024-01-11T03:03:02.729Z,185
2024-01-11T03:03:33.779Z,250
2024-01-11T03:04:06.665Z,250
2024-01-11T03:04:37.785Z,250
2024-01-11T03:05:10.723Z,237
2024-01-11T03:05:41.895Z,236
2024-01-11T03:06:14.646Z,235
2024-01-11T03:06:45.637Z,235
2024-01-11T03:07:18.608Z,235
2024-01-11T03:07:49.722Z,233
2024-01-11T03:08:22.833Z,232
2024-01-11T03:08:53.614Z,236
2024-01-11T03:09:26.640Z,244
2024-01-11T03:09:57.880Z,244
2024-01-11T03:10:30.815Z,241
2024-01-11T03:11:01.728Z,241
2024-01-11T03:11:34.956Z,241
2024-01-11T03:12:05.758Z,241
2024-01-11T03:12:38.629Z,241
2024-01-11T03:13:09.721Z,244
2024-01-11T03:13:42.705Z,244
2024-01-11T03:14:13.626Z,244
2024-01-11T03:14:46.477Z,244
2024-01-11T03:15:19.117Z,244
2024-01-11T03:15:50.940Z,256
2024-01-11T03:16:21.764Z,256
2024-01-11T03:16:54.668Z,256
2024-01-11T03:17:25.944Z,256
2024-01-11T03:17:58.962Z,256
2024-01-11T03:18:29.689Z,260
2024-01-11T03:19:02.793Z,260
2024-01-11T03:19:33.730Z,258
2024-01-11T03:20:07.031Z,258
2024-01-11T03:20:37.788Z,258
2024-01-11T03:21:10.775Z,260
2024-01-11T03:21:41.647Z,260
2024-01-11T03:21:57.856Z,260
2024-01-11T03:22:29.660Z,260
2024-01-11T03:23:01.714Z,265
2024-01-11T03:23:33.916Z,265
2024-01-11T03:24:05.595Z,265
2024-01-11T03:24:40.204Z,267
2024-01-11T03:25:10.171Z,267
2024-01-11T03:25:42.587Z,267
2024-01-11T03:26:13.831Z,267
2024-01-11T03:26:46.642Z,267
2024-01-11T03:27:17.800Z,267
2024-01-11T03:27:50.713Z,309
2024-01-11T03:28:21.729Z,309
2024-01-11T03:28:54.763Z,277
2024-01-11T03:29:25.727Z,278
2024-01-11T03:29:58.715Z,278
2024-01-11T03:30:31.148Z,288
2024-01-11T03:31:02.819Z,284
2024-01-11T03:31:33.720Z,284
2024-01-11T03:32:06.806Z,284
2024-01-11T03:32:37.988Z,284
2024-01-11T03:33:10.720Z,284
2024-01-11T03:33:41.764Z,284
2024-01-11T03:34:14.644Z,284
2024-01-11T03:34:45.919Z,284
2024-01-11T03:35:20.837Z,284
2024-01-11T03:35:49.791Z,284
2024-01-11T03:36:22.907Z,284
2024-01-11T03:36:53.668Z,284
2024-01-11T03:37:26.828Z,284
2024-01-11T03:37:57.814Z,284
2024-01-11T03:38:30.863Z,284
2024-01-11T03:39:01.796Z,284
2024-01-11T03:39:34.615Z,284
2024-01-11T03:40:06.062Z,280
2024-01-11T03:40:38.662Z,213
2024-01-11T03:41:09.724Z,213
2024-01-11T03:41:42.605Z,213
2024-01-11T03:42:13.624Z,213
2024-01-11T03:42:46.573Z,213
2024-01-11T03:43:17.743Z,222
2024-01-11T03:43:51.011Z,222
2024-01-11T03:44:21.650Z,222
2024-01-11T03:44:54.661Z,222
2024-01-11T03:45:27.126Z,221
2024-01-11T03:46:08.311Z,221
2024-01-11T03:46:29.648Z,221
2024-01-11T03:47:01.747Z,221
2024-01-11T03:47:34.919Z,221
2024-01-11T03:48:05.832Z,203
2024-01-11T03:48:39.561Z,219
2024-01-11T03:51:49.831Z,217
2024-01-11T03:52:22.662Z,217
2024-01-11T03:52:53.729Z,217
2024-01-11T03:53:26.590Z,217
2024-01-11T03:53:57.747Z,217
2024-01-11T03:54:45.854Z,217
2024-01-11T03:55:18.442Z,217
2024-01-11T03:55:49.723Z,217
2024-01-11T03:56:21.728Z,217
2024-01-11T03:56:53.713Z,219
2024-01-11T03:57:25.779Z,219
2024-01-11T03:57:57.578Z,219
2024-01-11T03:58:32.498Z,219
2024-01-11T03:59:01.895Z,233
2024-01-11T03:59:34.750Z,241
2024-01-11T04:00:10.801Z,241
2024-01-11T04:00:39.815Z,241
2024-01-11T04:01:09.851Z,241
2024-01-11T04:01:42.433Z,241
2024-01-11T04:02:13.791Z,241
2024-01-11T04:02:46.684Z,241
2024-01-11T04:03:17.880Z,241
2024-01-11T04:03:50.649Z,241
2024-01-11T04:04:21.797Z,241
2024-01-11T04:04:54.618Z,241
2024-01-11T04:05:26.119Z,241
2024-01-11T04:05:58.741Z,241
2024-01-11T04:06:29.828Z,309
2024-01-11T04:07:02.603Z,309
2024-01-11T04:07:33.705Z,309
2024-01-11T04:08:06.637Z,309
2024-01-11T04:08:37.984Z,309
2024-01-11T04:09:10.558Z,309
2024-01-11T04:09:41.706Z,309
2024-01-11T04:10:14.984Z,309
2024-01-11T04:10:45.580Z,309
2024-01-11T04:11:19.398Z,257
2024-01-11T04:11:49.724Z,257
2024-01-11T04:12:22.816Z,257
2024-01-11T04:12:53.677Z,249
2024-01-11T04:13:32.034Z,249
2024-01-11T04:13:57.921Z,249
2024-01-11T04:14:29.651Z,249
2024-01-11T04:15:04.481Z,245
2024-01-11T04:15:33.858Z,249
2024-01-11T04:16:06.860Z,248
2024-01-11T04:16:37.661Z,248
2024-01-11T04:17:10.818Z,248
2024-01-11T04:17:42.074Z,248
2024-01-11T04:18:14.659Z,248
2024-01-11T04:18:45.720Z,248
2024-01-11T04:19:22.476Z,247
2024-01-11T04:19:49.854Z,247
2024-01-11T04:20:23.044Z,247
2024-01-11T04:20:53.796Z,247
2024-01-11T04:21:26.735Z,247
2024-01-11T04:21:57.603Z,248
2024-01-11T04:22:30.699Z,250
2024-01-11T04:23:01.822Z,253
2024-01-11T04:23:34.826Z,253
2024-01-11T04:24:05.686Z,253
2024-01-11T04:24:38.594Z,256
2024-01-11T04:25:10.046Z,256
2024-01-11T04:25:42.524Z,256
2024-01-11T04:26:13.724Z,256
2024-01-11T04:26:46.575Z,256
2024-01-11T04:27:17.799Z,256
2024-01-11T04:27:50.702Z,256
2024-01-11T04:28:21.762Z,256
2024-01-11T04:28:57.880Z,256
2024-01-11T04:29:25.691Z,270
2024-01-11T04:29:58.613Z,269
2024-01-11T04:30:31.220Z,270
2024-01-11T04:31:02.655Z,270
2024-01-11T04:31:33.707Z,270
2024-01-11T04:32:06.809Z,270
2024-01-11T04:32:38.000Z,270
2024-01-11T04:33:10.482Z,270
2024-01-11T04:33:41.853Z,270
2024-01-11T04:34:20.521Z,270
2024-01-11T04:34:45.827Z,273
2024-01-11T04:35:18.344Z,273
2024-01-11T04:35:49.764Z,278
2024-01-11T04:36:21.991Z,307
2024-01-11T04:36:53.683Z,307
2024-01-11T04:37:25.705Z,307
2024-01-11T04:37:57.899Z,307
2024-01-11T04:38:29.691Z,307
2024-01-11T04:39:02.673Z,307
2024-01-11T04:39:33.729Z,307
2024-01-11T04:40:07.820Z,307
2024-01-11T04:40:37.746Z,307
2024-01-11T04:41:10.675Z,304
2024-01-11T04:41:41.826Z,304
2024-01-11T04:41:57.893Z,304
2024-01-11T04:42:29.877Z,304
2024-01-11T04:43:01.715Z,304
2024-01-11T04:43:35.567Z,304
2024-01-11T04:44:05.837Z,273
2024-01-11T04:44:44.157Z,271
2024-01-11T04:45:11.111Z,273
2024-01-11T04:45:41.957Z,273
2024-01-11T04:46:13.573Z,273
2024-01-11T04:46:45.641Z,273
2024-01-11T04:47:18.450Z,273
2024-01-11T04:47:49.860Z,271
2024-01-11T04:48:22.729Z,273
2024-01-11T04:48:53.899Z,273
2024-01-11T04:49:26.647Z,273
2024-01-11T04:49:57.843Z,273
2024-01-11T04:50:30.828Z,273
2024-01-11T04:51:01.808Z,273
2024-01-11T04:51:34.500Z,273
2024-01-11T04:52:05.798Z,272
2024-01-11T04:52:44.007Z,272
2024-01-11T04:53:09.754Z,272
2024-01-11T04:53:41.856Z,272
2024-01-11T04:54:14.410Z,273
2024-01-11T04:54:45.699Z,273
2024-01-11T04:55:18.965Z,273
2024-01-11T04:55:49.656Z,273
2024-01-11T04:56:23.037Z,273
2024-01-11T04:56:53.865Z,277
2024-01-11T04:57:26.862Z,279
2024-01-11T04:57:57.724Z,281
2024-01-11T04:58:31.614Z,281
2024-01-11T04:59:01.910Z,280
2024-01-11T04:59:34.605Z,280
2024-01-11T05:00:07.641Z,280
2024-01-11T05:00:39.019Z,278
2024-01-11T05:01:09.731Z,273
2024-01-11T05:01:42.607Z,273
2024-01-11T05:02:13.880Z,273
2024-01-11T05:02:46.924Z,273
2024-01-11T05:03:17.758Z,273
2024-01-11T05:03:50.559Z,273
2024-01-11T05:04:21.792Z,273
2024-01-11T05:04:54.558Z,273
2024-01-11T05:05:26.441Z,273
2024-01-11T05:05:58.713Z,278
2024-01-11T05:06:29.886Z,277
2024-01-11T05:07:02.681Z,208
2024-01-11T05:07:33.679Z,212
2024-01-11T05:08:06.866Z,212
2024-01-11T05:08:37.682Z,209
2024-01-11T05:09:10.626Z,209
2024-01-11T05:09:41.773Z,209
2024-01-11T05:10:15.081Z,209
2024-01-11T05:10:45.629Z,209
2024-01-11T05:11:18.585Z,209
2024-01-11T05:11:49.825Z,209
2024-01-11T05:12:22.562Z,209
2024-01-11T05:12:53.786Z,209
2024-01-11T05:13:26.693Z,209
2024-01-11T05:13:57.912Z,209
2024-01-11T05:14:30.482Z,209
2024-01-11T05:15:03.341Z,209
2024-01-11T05:15:34.800Z,209
2024-01-11T05:16:05.709Z,209
2024-01-11T05:16:38.497Z,178
2024-01-11T05:17:09.826Z,182
2024-01-11T05:17:42.921Z,182
2024-01-11T05:18:13.721Z,181
2024-01-11T05:18:46.688Z,181
2024-01-11T05:19:17.909Z,186
2024-01-11T05:19:50.300Z,181
2024-01-11T05:20:22.122Z,181
2024-01-11T05:20:54.573Z,181
2024-01-11T05:21:25.909Z,181
2024-01-11T05:21:58.683Z,181
2024-01-11T05:22:29.822Z,181
2024-01-11T05:23:02.834Z,181
2024-01-11T05:23:33.823Z,181
2024-01-11T05:24:12.626Z,181
2024-01-11T05:24:37.740Z,181
2024-01-11T05:25:09.911Z,181
2024-01-11T05:25:42.811Z,181
2024-01-11T05:26:13.774Z,189
2024-01-11T05:26:46.871Z,189
2024-01-11T05:27:17.741Z,211
2024-01-11T05:27:50.973Z,201
2024-01-11T05:28:21.841Z,198
2024-01-11T05:28:54.696Z,198
2024-01-11T05:29:25.960Z,198
2024-01-11T05:29:59.671Z,201
2024-01-11T05:30:31.542Z,198
2024-01-11T05:31:02.785Z,206
2024-01-11T05:31:33.923Z,180
2024-01-11T05:32:06.855Z,180
2024-01-11T05:32:38.104Z,180
2024-01-11T05:33:10.729Z,180
2024-01-11T05:33:41.998Z,180
2024-01-11T05:34:14.854Z,180
2024-01-11T05:34:45.637Z,181
2024-01-11T05:35:18.833Z,183
2024-01-11T05:35:49.783Z,183
2024-01-11T05:36:22.650Z,183
2024-01-11T05:36:53.674Z,183
2024-01-11T05:37:26.718Z,183
2024-01-11T05:37:57.795Z,183
2024-01-11T05:38:30.780Z,183
2024-01-11T05:39:01.783Z,186
2024-01-11T05:39:34.591Z,186
2024-01-11T05:40:05.904Z,186
2024-01-11T05:40:38.495Z,186
2024-01-11T05:41:10.088Z,186
2024-01-11T05:41:42.659Z,186
2024-01-11T05:42:13.622Z,216
2024-01-11T05:42:46.885Z,199
2024-01-11T05:43:17.690Z,214
2024-01-11T05:43:50.705Z,214
2024-01-11T05:44:21.822Z,214
2024-01-11T05:44:54.573Z,211
2024-01-11T05:45:35.831Z,214
2024-01-11T05:45:58.848Z,214
2024-01-11T05:46:32.390Z,214
2024-01-11T05:47:02.602Z,216
2024-01-11T05:47:33.793Z,210
2024-01-11T05:48:06.812Z,210
2024-01-11T05:48:37.949Z,210
2024-01-11T05:49:10.830Z,214
2024-01-11T05:49:41.686Z,214
2024-01-11T05:50:14.968Z,214
2024-01-11T05:50:45.821Z,214
2024-01-11T05:51:18.506Z,204
2024-01-11T05:51:49.647Z,210
2024-01-11T05:52:22.841Z,214
2024-01-11T05:52:53.829Z,194
2024-01-11T05:53:26.585Z,210
2024-01-11T05:53:57.766Z,185
2024-01-11T05:54:30.847Z,185
2024-01-11T05:55:02.392Z,185
2024-01-11T05:55:34.632Z,180
2024-01-11T05:56:05.772Z,188
2024-01-11T05:56:38.742Z,188
2024-01-11T05:57:09.709Z,188
2024-01-11T05:57:48.263Z,188
2024-01-11T05:58:13.804Z,188
2024-01-11T05:58:45.747Z,188
2024-01-11T05:59:18.738Z,188
2024-01-11T05:59:49.770Z,184
2024-01-11T06:00:25.073Z,184
2024-01-11T06:00:53.856Z,184
2024-01-11T06:01:26.634Z,184
2024-01-11T06:01:57.909Z,184
2024-01-11T06:02:30.798Z,184
2024-01-11T06:03:01.772Z,184
2024-01-11T06:03:34.585Z,211
2024-01-11T06:04:05.817Z,180
2024-01-11T06:04:38.492Z,180
2024-01-11T06:05:10.060Z,211
2024-01-11T06:05:42.922Z,211
2024-01-11T06:06:13.696Z,218
2024-01-11T06:06:52.158Z,218
2024-01-11T06:07:17.810Z,218
2024-01-11T06:07:49.892Z,218
2024-01-11T06:08:21.756Z,182
2024-01-11T06:08:53.812Z,180
2024-01-11T06:09:25.848Z,180
2024-01-11T06:09:57.668Z,180
2024-01-11T06:10:30.903Z,180
2024-01-11T06:11:02.054Z,180
2024-01-11T06:11:34.679Z,180
2024-01-11T06:12:05.844Z,180
2024-01-11T06:12:38.764Z,180
2024-01-11T06:13:09.822Z,180
2024-01-11T06:13:42.338Z,178
2024-01-11T06:14:13.807Z,178
2024-01-11T06:14:49.620Z,176
2024-01-11T06:15:18.889Z,175
2024-01-11T06:15:50.741Z,175
2024-01-11T06:16:21.868Z,175
2024-01-11T06:16:54.354Z,175
2024-01-11T06:17:25.778Z,175
2024-01-11T06:17:58.746Z,174
2024-01-11T06:18:30.010Z,174
2024-01-11T06:19:02.626Z,174
2024-01-11T06:19:33.853Z,173
2024-01-11T06:20:07.067Z,173
2024-01-11T06:20:37.731Z,173
2024-01-11T06:21:10.469Z,173
2024-01-11T06:21:41.774Z,173
2024-01-11T06:22:14.727Z,174
2024-01-11T06:22:46.403Z,173
2024-01-11T06:23:18.708Z,174
2024-01-11T06:23:49.858Z,174
2024-01-11T06:24:22.713Z,174
2024-01-11T06:24:53.752Z,174
2024-01-11T06:25:26.999Z,174
2024-01-11T06:25:57.889Z,174
2024-01-11T06:26:30.559Z,173
2024-01-11T06:27:01.770Z,173
2024-01-11T06:27:34.540Z,173
2024-01-11T06:28:05.873Z,174
2024-01-11T06:28:38.689Z,174
2024-01-11T06:29:09.820Z,174
2024-01-11T06:29:42.899Z,174
2024-01-11T06:30:14.964Z,174
2024-01-11T06:30:46.860Z,174
2024-01-11T06:31:17.819Z,174
2024-01-11T06:31:50.786Z,174
2024-01-11T06:32:21.737Z,174
2024-01-11T06:32:54.791Z,174
2024-01-11T06:33:25.831Z,174
2024-01-11T06:33:58.578Z,174
2024-01-11T06:34:29.788Z,174
2024-01-11T06:35:03.499Z,174
2024-01-11T06:35:33.692Z,174
2024-01-11T06:36:06.455Z,302
2024-01-11T06:36:37.763Z,318
2024-01-11T06:37:12.138Z,318
2024-01-11T06:37:41.729Z,318
2024-01-11T06:38:14.830Z,313
2024-01-11T06:38:45.930Z,318
2024-01-11T06:39:18.785Z,317
2024-01-11T06:39:49.796Z,320
2024-01-11T06:40:22.993Z,320
2024-01-11T06:40:53.830Z,320
2024-01-11T06:41:27.548Z,334
2024-01-11T06:41:57.784Z,321
2024-01-11T06:42:30.905Z,321
2024-01-11T06:43:01.834Z,317
2024-01-11T06:43:34.589Z,323
2024-01-11T06:44:05.801Z,317
2024-01-11T06:44:38.726Z,323
2024-01-11T06:45:11.019Z,323
2024-01-11T06:45:42.824Z,325
2024-01-11T06:46:13.841Z,325
2024-01-11T06:46:47.398Z,325
2024-01-11T06:47:17.926Z,325
2024-01-11T06:47:50.858Z,325
2024-01-11T06:48:22.245Z,325
2024-01-11T06:48:54.498Z,343
2024-01-11T06:49:25.723Z,340
2024-01-11T06:49:58.712Z,338
2024-01-11T06:50:30.217Z,343
2024-01-11T06:51:03.064Z,345
2024-01-11T06:51:33.862Z,345
2024-01-11T06:52:07.659Z,345
2024-01-11T06:52:37.713Z,345
2024-01-11T06:53:11.021Z,345
2024-01-11T06:53:41.894Z,345
2024-01-11T06:54:14.618Z,345
2024-01-11T06:54:45.681Z,345
2024-01-11T06:55:18.922Z,332
2024-01-11T06:55:49.851Z,332
2024-01-11T06:56:22.587Z,332
2024-01-11T06:56:53.979Z,332
2024-01-11T06:57:26.842Z,332
2024-01-11T06:57:57.799Z,332
2024-01-11T06:58:30.571Z,332
2024-01-11T06:59:01.899Z,332
2024-01-11T06:59:34.637Z,332
2024-01-11T07:00:07.585Z,332
2024-01-11T07:00:38.767Z,282
2024-01-11T07:01:09.884Z,282
2024-01-11T07:01:42.652Z,282
2024-01-11T07:02:13.880Z,282
2024-01-11T07:02:47.255Z,282
2024-01-11T07:03:17.820Z,282
2024-01-11T07:03:50.734Z,282
2024-01-11T07:04:21.718Z,282
2024-01-11T07:04:54.739Z,282
2024-01-11T07:05:26.124Z,282
2024-01-11T07:05:58.589Z,279
2024-01-11T07:06:29.735Z,279
2024-01-11T07:07:02.659Z,270
2024-01-11T07:07:33.717Z,270
2024-01-11T07:08:06.996Z,270
2024-01-11T07:08:37.998Z,270
2024-01-11T07:09:10.743Z,261
2024-01-11T07:09:41.700Z,261
2024-01-11T07:10:19.856Z,261
2024-01-11T07:10:46.568Z,261
2024-01-11T07:11:17.795Z,261
2024-01-11T07:11:50.896Z,261
2024-01-11T07:12:22.094Z,261
2024-01-11T07:12:54.979Z,261
2024-01-11T07:13:25.986Z,261
2024-01-11T07:13:58.785Z,261
2024-01-11T07:14:30.191Z,261
2024-01-11T07:15:04.947Z,261
2024-01-11T07:15:34.107Z,261
2024-01-11T07:16:07.390Z,259
2024-01-11T07:16:38.038Z,322
2024-01-11T07:17:10.826Z,320
2024-01-11T07:17:42.070Z,322
2024-01-11T07:18:14.905Z,317
2024-01-11T07:18:46.047Z,317
2024-01-11T07:19:19.014Z,317
2024-01-11T07:19:50.149Z,317
2024-01-11T07:20:23.377Z,317
2024-01-11T07:20:54.042Z,317
2024-01-11T07:21:27.277Z,317
2024-01-11T07:21:58.158Z,317
2024-01-11T07:22:31.097Z,317
2024-01-11T07:23:02.177Z,317
2024-01-11T07:23:34.910Z,317
2024-01-11T07:24:05.916Z,317
2024-01-11T07:24:39.475Z,317
2024-01-11T07:25:10.320Z,317
2024-01-11T07:25:42.762Z,236
2024-01-11T07:26:14.000Z,236